Time;durP1;ratioP1;P1;durP2;ratioP2;P2;SDS_P1;SDS_P2;PMS_P1;PMS_P2;Temp;Humidity;BMP_temperature;BMP_pressure;BME280_temperature;BME280_humidity;BME280_pressure;Samples;Min_cycle;Max_cycle;Signal;HPM_P1;HPM_P2
2022/04/29 00:01:45;;;;;;;1.60;1.50;;;17.60;59.40;;;;;;4998897;28;20750;-59
2022/04/29 00:04:17;;;;;;;1.90;1.70;;;17.60;59.40;;;;;;5010498;28;20201;-59
2022/04/29 00:06:48;;;;;;;2.88;1.90;;;17.60;59.40;;;;;;5009244;28;20212;-59
2022/04/29 00:09:18;;;;;;;1.77;1.40;;;17.70;59.50;;;;;;5009600;28;20196;-56
2022/04/29 00:11:50;;;;;;;1.70;1.30;;;17.70;59.60;;;;;;5009889;28;20203;-57
2022/04/29 00:14:21;;;;;;;1.80;1.42;;;17.70;59.70;;;;;;5007108;28;20304;-57
2022/04/29 00:16:52;;;;;;;1.88;1.55;;;17.80;59.80;;;;;;5009790;28;20299;-57
2022/04/29 00:19:24;;;;;;;2.75;1.70;;;17.80;59.70;;;;;;5009550;28;20712;-57
2022/04/29 00:21:55;;;;;;;2.38;1.70;;;17.80;59.60;;;;;;5010202;28;20240;-56
2022/04/29 00:24:26;;;;;;;2.63;1.85;;;17.90;59.60;;;;;;5010431;28;20247;-55
2022/04/29 00:26:56;;;;;;;2.08;1.55;;;17.90;59.70;;;;;;5007485;28;20267;-59
2022/04/29 00:29:27;;;;;;;2.75;1.90;;;18.00;59.80;;;;;;5010327;28;20192;-58
2022/04/29 00:31:57;;;;;;;3.38;1.65;;;18.00;59.80;;;;;;5010731;28;20248;-58
2022/04/29 00:34:30;;;;;;;2.88;1.73;;;18.00;59.70;;;;;;5008259;28;20583;-58
2022/04/29 00:37:00;;;;;;;3.30;1.83;;;18.10;59.90;;;;;;5010106;28;20216;-58
2022/04/29 00:39:31;;;;;;;2.35;1.80;;;18.10;59.90;;;;;;5009211;28;20228;-57
2022/04/29 00:42:01;;;;;;;3.17;1.95;;;18.10;60.00;;;;;;5008775;28;20718;-57
2022/04/29 00:44:32;;;;;;;3.13;1.90;;;18.20;60.00;;;;;;5009422;28;20232;-58
2022/04/29 00:47:02;;;;;;;2.85;1.70;;;18.20;60.00;;;;;;5010082;28;20318;-58
2022/04/29 00:49:35;;;;;;;3.47;1.90;;;18.20;59.90;;;;;;5009136;28;20197;-58
2022/04/29 00:52:07;;;;;;;3.40;2.22;;;18.20;60.30;;;;;;5010172;28;20193;-57
2022/04/29 00:54:40;;;;;;;3.05;2.08;;;18.30;60.90;;;;;;5009613;28;20228;-57
2022/04/29 00:57:14;;;;;;;4.30;1.80;;;18.30;61.00;;;;;;5009652;28;20275;-58
2022/04/29 00:59:50;;;;;;;3.47;2.10;;;18.30;60.90;;;;;;5009350;28;20255;-59
2022/04/29 01:02:22;;;;;;;6.72;2.10;;;18.40;60.90;;;;;;5008962;28;20331;-59
2022/04/29 01:05:00;;;;;;;3.00;1.90;;;18.40;60.70;;;;;;5009853;28;20223;-57
2022/04/29 01:07:32;;;;;;;3.70;1.90;;;18.40;60.60;;;;;;5008831;28;20278;-59
2022/04/29 01:10:03;;;;;;;3.13;1.92;;;18.50;60.40;;;;;;5009662;28;20232;-59
2022/04/29 01:12:36;;;;;;;2.53;1.90;;;18.50;60.30;;;;;;5008431;28;20220;-59
2022/04/29 01:15:08;;;;;;;3.75;1.88;;;18.50;60.20;;;;;;5009685;28;20237;-59
2022/04/29 01:17:40;;;;;;;4.88;2.00;;;18.50;60.10;;;;;;5008780;28;20216;-57
2022/04/29 01:20:14;;;;;;;3.47;1.80;;;18.60;60.00;;;;;;5006689;28;20262;-58
2022/04/29 01:22:47;;;;;;;3.97;1.77;;;18.60;60.00;;;;;;5009142;28;20231;-57
2022/04/29 01:25:17;;;;;;;2.50;1.67;;;18.60;59.90;;;;;;5007908;28;20201;-58
2022/04/29 01:27:49;;;;;;;3.60;1.98;;;18.70;60.00;;;;;;5008691;28;21019;-57
2022/04/29 01:30:20;;;;;;;2.70;1.65;;;18.70;59.90;;;;;;5008590;28;20201;-57
2022/04/29 01:32:50;;;;;;;3.58;1.85;;;18.70;59.80;;;;;;5008445;28;20196;-58
2022/04/29 01:35:21;;;;;;;3.35;1.80;;;18.70;59.80;;;;;;5008743;28;20256;-57
2022/04/29 01:37:54;;;;;;;2.95;1.92;;;18.80;59.80;;;;;;5008863;28;20248;-58
2022/04/29 01:40:24;;;;;;;4.45;2.05;;;18.80;59.80;;;;;;5008708;28;20193;-58
2022/04/29 01:42:55;;;;;;;3.63;1.90;;;18.80;59.70;;;;;;5007540;28;20196;-59
2022/04/29 01:45:25;;;;;;;3.13;1.67;;;18.80;59.60;;;;;;5008860;28;20251;-58
2022/04/29 01:47:56;;;;;;;2.13;1.77;;;18.80;59.60;;;;;;5009424;28;20192;-58
2022/04/29 01:50:26;;;;;;;3.45;1.95;;;18.90;59.60;;;;;;5008096;28;20197;-58
2022/04/29 01:52:59;;;;;;;4.65;2.15;;;18.90;59.50;;;;;;5008632;28;20252;-58
2022/04/29 01:55:29;;;;;;;4.20;2.00;;;18.90;59.40;;;;;;5007166;28;20556;-57
2022/04/29 01:58:00;;;;;;;2.15;1.70;;;19.00;59.40;;;;;;5008168;28;20278;-58
2022/04/29 02:00:31;;;;;;;2.55;2.03;;;19.00;59.40;;;;;;5007818;28;20244;-58
2022/04/29 02:03:01;;;;;;;3.13;2.00;;;19.00;59.30;;;;;;5008449;28;20204;-58
2022/04/29 02:05:32;;;;;;;3.47;1.98;;;19.00;59.30;;;;;;5008781;28;20669;-58
2022/04/29 02:08:04;;;;;;;4.18;1.85;;;19.00;59.30;;;;;;5008023;28;20236;-58
2022/04/29 02:10:34;;;;;;;2.50;1.80;;;19.10;59.20;;;;;;5008345;28;21458;-59
2022/04/29 02:13:05;;;;;;;4.35;2.05;;;19.10;59.10;;;;;;5007661;28;20228;-58
2022/04/29 02:15:36;;;;;;;4.22;2.13;;;19.10;58.90;;;;;;5008767;28;20696;-58
2022/04/29 02:18:07;;;;;;;4.95;1.90;;;19.20;58.90;;;;;;5008313;28;20189;-57
2022/04/29 02:20:38;;;;;;;4.15;1.85;;;19.20;58.90;;;;;;5005390;28;20276;-58
2022/04/29 02:23:10;;;;;;;2.78;1.77;;;19.20;59.30;;;;;;5008646;28;20196;-58
2022/04/29 02:25:40;;;;;;;4.20;1.98;;;19.20;59.30;;;;;;5008033;28;20193;-58
2022/04/29 02:28:11;;;;;;;3.28;2.15;;;19.30;58.50;;;;;;5006948;28;20213;-58
2022/04/29 02:30:43;;;;;;;4.30;2.10;;;19.30;58.40;;;;;;5011418;28;20203;-58
2022/04/29 02:33:13;;;;;;;2.90;2.00;;;19.30;58.30;;;;;;5011969;28;20224;-57
2022/04/29 02:35:44;;;;;;;3.60;2.17;;;19.30;58.40;;;;;;5009882;28;20225;-58
2022/04/29 02:38:16;;;;;;;2.75;2.10;;;19.30;58.40;;;;;;5011311;28;20197;-59
2022/04/29 02:40:50;;;;;;;3.78;2.03;;;19.40;58.30;;;;;;5010807;28;20193;-59
2022/04/29 02:43:21;;;;;;;3.30;2.25;;;19.40;58.30;;;;;;5011178;28;20219;-58
2022/04/29 02:45:51;;;;;;;2.50;1.90;;;19.40;58.30;;;;;;5011869;28;20221;-58
2022/04/29 02:48:22;;;;;;;3.65;2.30;;;19.50;58.30;;;;;;5011936;28;20196;-58
2022/04/29 02:50:52;;;;;;;3.67;2.08;;;19.50;58.10;;;;;;5012200;28;20224;-58
2022/04/29 02:53:25;;;;;;;3.38;1.98;;;19.50;58.10;;;;;;5011691;28;20240;-58
2022/04/29 02:55:55;;;;;;;3.05;1.77;;;19.60;58.00;;;;;;5010412;28;20260;-58
2022/04/29 02:58:26;;;;;;;3.05;2.00;;;19.60;57.90;;;;;;5012351;28;20719;-57
2022/04/29 03:00:57;;;;;;;3.25;1.77;;;19.60;57.90;;;;;;5013301;28;20668;-57
2022/04/29 03:03:27;;;;;;;3.72;2.35;;;19.60;57.80;;;;;;5012200;28;20603;-49
2022/04/29 03:05:58;;;;;;;6.72;2.45;;;19.60;57.70;;;;;;5011397;28;20244;-58
2022/04/29 03:08:30;;;;;;;5.70;2.05;;;19.60;56.70;;;;;;5011067;28;20243;-56
2022/04/29 03:11:01;;;;;;;8.63;2.42;;;19.60;55.80;;;;;;5010663;28;20221;-56
2022/04/29 03:13:31;;;;;;;6.70;2.08;;;19.60;55.70;;;;;;5012042;28;20204;-57
2022/04/29 03:16:02;;;;;;;5.55;2.10;;;19.60;55.90;;;;;;5011828;28;20236;-58
2022/04/29 03:18:32;;;;;;;6.82;2.25;;;19.60;56.10;;;;;;5011049;28;20197;-57
2022/04/29 03:21:03;;;;;;;5.03;2.28;;;19.60;56.10;;;;;;5010875;28;20225;-58
2022/04/29 03:23:35;;;;;;;5.82;2.35;;;19.60;56.20;;;;;;5009068;28;20209;-58
2022/04/29 03:26:07;;;;;;;7.50;2.33;;;19.60;56.10;;;;;;5011233;28;20314;-57
2022/04/29 03:28:38;;;;;;;7.75;2.10;;;19.70;56.20;;;;;;5010604;28;20197;-57
2022/04/29 03:31:08;;;;;;;4.57;2.10;;;19.70;56.40;;;;;;5011024;28;20231;-58
2022/04/29 03:33:39;;;;;;;4.97;2.10;;;19.70;56.30;;;;;;5011172;28;20255;-57
2022/04/29 03:36:10;;;;;;;7.22;2.47;;;19.70;56.20;;;;;;5011607;28;20229;-57
2022/04/29 03:38:42;;;;;;;6.72;2.15;;;19.80;56.30;;;;;;5010323;28;20676;-58
2022/04/29 03:41:13;;;;;;;4.65;2.00;;;19.80;56.20;;;;;;5010971;28;20302;-58
2022/04/29 03:43:44;;;;;;;4.53;2.13;;;19.80;56.20;;;;;;5010550;28;20231;-57
2022/04/29 03:46:14;;;;;;;5.65;2.20;;;19.80;56.20;;;;;;5011174;28;20245;-57
2022/04/29 03:51:31;;;;;;;3.95;2.17;;;19.90;56.30;;;;;;5011328;28;20203;-58
2022/04/29 03:54:04;;;;;;;4.30;2.10;;;19.90;56.40;;;;;;5010260;28;20197;-57
2022/04/29 03:56:34;;;;;;;4.50;2.10;;;19.90;56.50;;;;;;5011237;28;20252;-58
2022/04/29 03:59:05;;;;;;;3.92;1.75;;;20.00;56.60;;;;;;5010841;28;20275;-58
2022/04/29 04:01:35;;;;;;;7.55;2.30;;;20.10;56.60;;;;;;5010540;28;20280;-57
2022/04/29 04:04:06;;;;;;;5.43;2.40;;;20.10;56.60;;;;;;5011091;28;20230;-58
2022/04/29 04:06:52;;;;;;;7.03;2.13;;;20.10;56.50;;;;;;5010394;28;20708;-58
2022/04/29 04:09:25;;;;;;;5.55;2.28;;;20.10;56.40;;;;;;5010638;28;20232;-59
2022/04/29 04:11:56;;;;;;;6.68;2.40;;;20.20;56.50;;;;;;5009420;28;20251;-58
2022/04/29 04:14:26;;;;;;;4.78;2.00;;;20.20;56.50;;;;;;5010027;28;20263;-60
2022/04/29 04:16:57;;;;;;;3.88;1.90;;;20.30;56.60;;;;;;5010257;28;20220;-59
2022/04/29 04:19:27;;;;;;;6.63;2.30;;;20.30;56.60;;;;;;5010644;28;20259;-57
2022/04/29 04:21:58;;;;;;;6.25;2.17;;;20.30;56.50;;;;;;5010727;28;20197;-58
2022/04/29 04:24:30;;;;;;;4.93;2.40;;;20.30;56.40;;;;;;5008003;28;20736;-59
2022/04/29 04:27:01;;;;;;;3.90;2.25;;;20.30;56.20;;;;;;5008167;28;20217;-58
2022/04/29 04:29:32;;;;;;;3.88;2.00;;;20.40;56.20;;;;;;5008494;28;20197;-58
2022/04/29 04:32:03;;;;;;;3.88;2.17;;;20.40;56.00;;;;;;5009375;28;20272;-58
2022/04/29 04:37:20;;;;;;;4.50;2.25;;;20.40;56.00;;;;;;5006198;28;20344;-58
2022/04/29 04:39:53;;;;;;;3.25;1.90;;;20.40;55.90;;;;;;5006753;28;20197;-59
2022/04/29 04:42:23;;;;;;;3.72;1.95;;;20.40;55.80;;;;;;5009212;28;21660;-57
2022/04/29 04:44:55;;;;;;;3.78;2.17;;;20.40;55.80;;;;;;5009762;28;20635;-57
2022/04/29 04:47:25;;;;;;;5.70;2.50;;;20.40;55.80;;;;;;5009389;28;20642;-57
2022/04/29 04:49:56;;;;;;;4.30;2.40;;;20.40;55.80;;;;;;5009574;28;20201;-57
2022/04/29 04:52:28;;;;;;;4.35;2.10;;;20.40;55.80;;;;;;5008215;28;20212;-57
2022/04/29 04:55:00;;;;;;;3.10;2.10;;;20.40;55.80;;;;;;5008530;28;20197;-58
2022/04/29 04:57:31;;;;;;;5.45;2.38;;;20.40;55.80;;;;;;5008821;28;20216;-58
2022/04/29 05:00:01;;;;;;;3.47;2.30;;;20.40;55.70;;;;;;5009854;28;20283;-57
2022/04/29 05:02:32;;;;;;;4.18;2.40;;;20.40;55.80;;;;;;5008963;28;20192;-57
2022/04/29 05:05:02;;;;;;;3.28;2.47;;;20.40;55.80;;;;;;5009577;28;20232;-58
2022/04/29 05:07:34;;;;;;;3.92;2.40;;;20.50;55.80;;;;;;5008273;28;20263;-57
2022/04/29 05:10:06;;;;;;;3.95;2.38;;;20.40;55.70;;;;;;5004729;28;20202;-57
2022/04/29 05:12:42;;;;;;;4.93;2.50;;;20.40;55.70;;;;;;5007741;28;20197;-57
2022/04/29 05:15:13;;;;;;;2.80;2.13;;;20.40;55.60;;;;;;5008056;28;20274;-58
2022/04/29 05:17:44;;;;;;;4.32;2.25;;;20.40;55.60;;;;;;5008392;28;20287;-58
2022/04/29 05:20:16;;;;;;;3.42;1.90;;;20.40;55.50;;;;;;5009545;28;20243;-57
2022/04/29 05:22:48;;;;;;;5.43;2.45;;;20.40;55.60;;;;;;5008922;28;20222;-57
2022/04/29 05:25:20;;;;;;;3.72;2.15;;;20.40;55.60;;;;;;5006573;28;20219;-57
2022/04/29 05:27:51;;;;;;;4.47;2.25;;;20.40;55.60;;;;;;5008692;28;20212;-58
2022/04/29 05:30:21;;;;;;;4.05;2.33;;;20.40;55.60;;;;;;5008587;28;20336;-59
2022/04/29 05:32:52;;;;;;;3.33;2.20;;;20.40;55.50;;;;;;5009394;28;20627;-58
2022/04/29 05:35:23;;;;;;;3.60;2.17;;;20.40;55.50;;;;;;5008704;28;20275;-58
2022/04/29 05:37:54;;;;;;;4.20;2.45;;;20.30;55.50;;;;;;5008189;28;20223;-58
2022/04/29 05:43:13;;;;;;;4.55;2.70;;;20.30;55.50;;;;;;5009048;28;20215;-56
2022/04/29 05:45:44;;;;;;;4.78;2.50;;;20.30;55.50;;;;;;4998899;28;20224;-56
2022/04/29 05:48:15;;;;;;;4.07;2.60;;;20.30;55.60;;;;;;5004836;28;20200;-58
2022/04/29 05:50:45;;;;;;;6.05;2.83;;;20.30;55.60;;;;;;5005496;28;20263;-56
2022/04/29 05:53:16;;;;;;;3.65;2.40;;;20.30;55.60;;;;;;5004676;28;20605;-57
2022/04/29 05:55:48;;;;;;;4.20;2.65;;;20.30;55.60;;;;;;5005200;28;20252;-58
2022/04/29 05:58:18;;;;;;;5.45;2.67;;;20.20;55.60;;;;;;5004513;28;20220;-57
2022/04/29 06:00:49;;;;;;;4.70;2.50;;;20.20;55.50;;;;;;5006113;28;20243;-58
2022/04/29 06:03:19;;;;;;;4.55;2.40;;;20.20;55.50;;;;;;5003578;28;20251;-57
2022/04/29 06:05:50;;;;;;;2.25;1.98;;;20.20;55.50;;;;;;5006774;28;20216;-57
2022/04/29 06:08:21;;;;;;;3.88;2.58;;;20.10;55.40;;;;;;5005622;28;20742;-58
2022/04/29 06:10:53;;;;;;;6.78;2.85;;;20.20;55.50;;;;;;5004952;28;20196;-58
2022/04/29 06:13:23;;;;;;;7.05;2.90;;;20.10;55.50;;;;;;5005544;28;20193;-57
2022/04/29 06:15:54;;;;;;;5.32;2.92;;;20.10;55.60;;;;;;5005239;28;20282;-58
2022/04/29 06:18:24;;;;;;;5.15;2.80;;;20.10;55.60;;;;;;5006271;28;20239;-58
2022/04/29 06:20:55;;;;;;;4.28;2.65;;;20.10;55.60;;;;;;5005584;28;20271;-58
2022/04/29 06:23:25;;;;;;;3.45;2.70;;;20.10;55.70;;;;;;5005708;28;20243;-57
2022/04/29 06:25:58;;;;;;;4.25;3.03;;;20.00;55.60;;;;;;5005274;28;20306;-58
2022/04/29 06:28:34;;;;;;;5.20;2.95;;;20.00;55.70;;;;;;5005396;28;20197;-58
2022/04/29 06:31:06;;;;;;;6.18;3.30;;;20.10;55.70;;;;;;5001787;28;20195;-58
2022/04/29 06:33:38;;;;;;;5.07;3.10;;;20.00;55.70;;;;;;5005900;28;20228;-57
2022/04/29 06:36:10;;;;;;;4.72;2.80;;;20.00;55.80;;;;;;5003573;28;20689;-57
2022/04/29 06:38:40;;;;;;;4.55;3.08;;;20.00;55.80;;;;;;5005861;28;20660;-56
2022/04/29 06:41:13;;;;;;;4.57;2.97;;;19.90;55.80;;;;;;5004680;28;20718;-55
2022/04/29 06:43:43;;;;;;;4.15;2.97;;;19.90;55.80;;;;;;4991410;28;20209;-57
2022/04/29 06:46:17;;;;;;;5.35;3.30;;;19.90;55.80;;;;;;4989892;28;20222;-56
2022/04/29 06:48:49;;;;;;;4.68;3.13;;;19.90;55.90;;;;;;4990397;28;20197;-56
2022/04/29 06:51:19;;;;;;;3.97;3.05;;;19.80;55.80;;;;;;4989610;28;20775;-57
2022/04/29 06:53:50;;;;;;;5.38;3.08;;;19.80;55.80;;;;;;4990446;28;20225;-56
2022/04/29 06:56:22;;;;;;;7.20;3.30;;;19.80;56.40;;;;;;4991485;28;20287;-55
2022/04/29 06:58:53;;;;;;;6.32;3.42;;;19.80;55.90;;;;;;4990155;28;20279;-57
2022/04/29 07:01:23;;;;;;;4.97;3.17;;;19.80;55.90;;;;;;4991234;28;20205;-57
2022/04/29 07:03:54;;;;;;;6.47;3.13;;;19.70;55.80;;;;;;4989922;28;20202;-57
2022/04/29 07:06:24;;;;;;;4.68;2.78;;;19.70;55.80;;;;;;4990840;28;20222;-56
2022/04/29 07:08:55;;;;;;;4.82;3.17;;;19.70;55.80;;;;;;4990969;28;20197;-55
2022/04/29 07:11:29;;;;;;;4.43;2.97;;;19.70;55.80;;;;;;4989733;28;20708;-56
2022/04/29 07:14:00;;;;;;;4.00;3.33;;;19.60;55.80;;;;;;4990038;28;20244;-57
2022/04/29 07:16:31;;;;;;;5.13;3.00;;;19.60;55.80;;;;;;4992595;28;20225;-54
2022/04/29 07:19:02;;;;;;;5.55;3.50;;;19.60;55.80;;;;;;4993521;28;20232;-53
2022/04/29 07:21:32;;;;;;;4.95;3.15;;;19.60;55.90;;;;;;4994461;28;20727;-56
2022/04/29 07:24:03;;;;;;;4.18;2.83;;;19.50;55.80;;;;;;4993522;28;20194;-56
2022/04/29 07:26:36;;;;;;;4.70;3.05;;;19.50;55.80;;;;;;4993697;28;20221;-56
2022/04/29 07:29:06;;;;;;;4.68;2.90;;;19.50;55.80;;;;;;4993289;28;20198;-56
2022/04/29 07:31:37;;;;;;;5.38;3.47;;;19.50;55.80;;;;;;4992755;28;20185;-57
2022/04/29 07:34:07;;;;;;;9.43;3.33;;;19.40;55.80;;;;;;4992701;28;20233;-56
2022/04/29 07:42:13;;;;;;;4.63;3.55;;;19.40;55.80;;;;;;4993339;28;20224;-57
2022/04/29 07:44:43;;;;;;;4.15;2.90;;;19.30;55.80;;;;;;4992434;28;20720;-56
2022/04/29 07:47:14;;;;;;;5.28;3.83;;;19.30;55.80;;;;;;4993500;28;20221;-56
2022/04/29 07:49:44;;;;;;;4.03;3.20;;;19.30;55.90;;;;;;4992217;28;20201;-56
2022/04/29 07:52:15;;;;;;;4.30;3.28;;;19.30;55.90;;;;;;4992952;28;20609;-54
2022/04/29 07:54:45;;;;;;;5.38;3.17;;;19.30;56.00;;;;;;4992620;28;20279;-56
2022/04/29 07:57:17;;;;;;;6.00;3.65;;;19.20;55.90;;;;;;4992463;28;20256;-56
2022/04/29 07:59:48;;;;;;;4.88;3.20;;;19.20;56.00;;;;;;4993913;28;20229;-56
2022/04/29 08:02:19;;;;;;;3.80;3.03;;;19.20;56.00;;;;;;4992170;28;20202;-56
2022/04/29 08:04:50;;;;;;;5.05;3.38;;;19.20;56.00;;;;;;4993804;28;20229;-54
2022/04/29 08:07:20;;;;;;;6.63;3.30;;;19.20;56.00;;;;;;4992877;28;20229;-55
2022/04/29 08:09:51;;;;;;;4.78;3.00;;;19.10;55.90;;;;;;4992926;28;20198;-56
2022/04/29 08:12:23;;;;;;;3.75;3.05;;;19.10;55.90;;;;;;4992745;28;20560;-56
2022/04/29 08:14:53;;;;;;;5.18;3.38;;;19.10;56.00;;;;;;4992190;28;20201;-56
2022/04/29 08:17:25;;;;;;;3.90;3.45;;;19.00;55.90;;;;;;4993304;28;20571;-57
2022/04/29 08:19:56;;;;;;;4.75;3.45;;;19.00;56.00;;;;;;4993338;28;20205;-56
2022/04/29 08:22:26;;;;;;;4.03;3.00;;;19.00;56.00;;;;;;4992924;28;20193;-55
2022/04/29 08:24:57;;;;;;;4.03;3.22;;;19.00;56.00;;;;;;4993322;28;20267;-57
2022/04/29 08:27:29;;;;;;;6.63;3.28;;;19.00;56.00;;;;;;4991696;28;20272;-55
2022/04/29 08:30:00;;;;;;;5.97;3.33;;;18.90;56.00;;;;;;4993042;28;20565;-57
2022/04/29 08:32:30;;;;;;;4.78;3.30;;;18.90;56.10;;;;;;4993730;28;20340;-57
2022/04/29 08:35:01;;;;;;;3.72;3.13;;;18.90;56.10;;;;;;4993581;28;20197;-56
2022/04/29 08:37:32;;;;;;;5.63;3.65;;;18.80;56.10;;;;;;4993629;28;20685;-56
2022/04/29 08:40:02;;;;;;;4.68;3.67;;;18.80;56.10;;;;;;4993318;28;20247;-56
2022/04/29 08:42:38;;;;;;;5.72;3.33;;;18.80;56.10;;;;;;4993036;28;20217;-55
2022/04/29 08:45:12;;;;;;;4.55;3.40;;;18.80;56.10;;;;;;4992773;28;20634;-56
2022/04/29 08:47:44;;;;;;;6.57;3.17;;;18.80;56.20;;;;;;4993173;28;20227;-57
2022/04/29 08:50:15;;;;;;;5.50;3.20;;;18.70;56.10;;;;;;4997228;28;20267;-55
2022/04/29 08:52:48;;;;;;;6.78;3.88;;;18.70;56.10;;;;;;5008766;28;20668;-57
2022/04/29 09:01:03;;;;;;;4.07;3.20;;;18.70;56.30;;;;;;5010612;28;20239;-57
2022/04/29 09:03:34;;;;;;;5.35;3.53;;;18.60;56.20;;;;;;5009340;28;20192;-57
2022/04/29 09:06:06;;;;;;;4.93;3.30;;;18.60;56.20;;;;;;5009586;28;20248;-57
2022/04/29 09:08:43;;;;;;;6.05;3.50;;;18.60;56.30;;;;;;5006000;28;20198;-56
2022/04/29 09:11:14;;;;;;;4.32;3.22;;;18.60;56.30;;;;;;5008963;28;20197;-57
2022/04/29 09:13:47;;;;;;;5.30;3.60;;;18.50;56.30;;;;;;5008892;28;20250;-58
2022/04/29 09:16:18;;;;;;;5.25;3.38;;;18.50;56.30;;;;;;5008587;28;20263;-56
2022/04/29 09:18:49;;;;;;;6.22;3.45;;;18.50;56.30;;;;;;5009465;28;20255;-56
2022/04/29 09:21:22;;;;;;;5.07;3.13;;;18.50;56.30;;;;;;5009005;28;20653;-58
2022/04/29 09:23:55;;;;;;;5.72;3.33;;;18.50;56.30;;;;;;5009797;28;20201;-58
2022/04/29 09:26:27;;;;;;;6.13;3.50;;;18.40;56.30;;;;;;5006613;28;20209;-55
2022/04/29 09:29:12;;;;;;;5.18;3.45;;;18.40;56.40;;;;;;5007246;28;20298;-58
2022/04/29 09:31:53;;;;;;;5.00;3.33;;;18.40;56.40;;;;;;5009214;28;20201;-56
2022/04/29 09:34:24;;;;;;;5.68;3.15;;;18.40;56.40;;;;;;5007605;28;20219;-57
2022/04/29 09:36:54;;;;;;;5.47;3.58;;;18.30;56.30;;;;;;5008348;28;20224;-57
2022/04/29 09:39:30;;;;;;;5.78;3.83;;;18.30;56.30;;;;;;5007703;28;20197;-56
2022/04/29 09:42:01;;;;;;;5.78;3.45;;;18.30;56.40;;;;;;5007410;28;20192;-57
2022/04/29 09:44:35;;;;;;;4.50;3.15;;;18.30;56.40;;;;;;5008418;28;20201;-58
2022/04/29 09:47:13;;;;;;;6.22;3.40;;;18.30;56.40;;;;;;5009216;28;20224;-57
2022/04/29 09:49:45;;;;;;;5.93;3.15;;;18.20;56.40;;;;;;5008807;28;20258;-56
2022/04/29 09:52:21;;;;;;;4.70;3.17;;;18.20;56.40;;;;;;5008004;28;20645;-56
2022/04/29 09:54:52;;;;;;;4.10;3.00;;;18.20;56.40;;;;;;5007531;28;20224;-58
2022/04/29 09:57:24;;;;;;;4.88;3.33;;;18.20;56.40;;;;;;5008156;28;20260;-56
2022/04/29 09:59:57;;;;;;;4.43;3.25;;;18.20;56.40;;;;;;5009268;28;20201;-56
2022/04/29 10:02:29;;;;;;;4.95;3.25;;;18.10;56.40;;;;;;5008125;28;20228;-56
2022/04/29 10:04:59;;;;;;;5.03;3.08;;;18.10;56.40;;;;;;5007502;28;20197;-57
2022/04/29 10:07:30;;;;;;;3.90;2.72;;;18.10;57.00;;;;;;5008169;28;20216;-58
2022/04/29 10:10:01;;;;;;;5.03;3.13;;;18.00;56.40;;;;;;5007379;28;20197;-57
2022/04/29 10:12:32;;;;;;;4.45;2.92;;;18.00;56.40;;;;;;5007667;28;20290;-56
2022/04/29 10:15:09;;;;;;;4.45;2.80;;;18.00;56.40;;;;;;5008584;28;20247;-57
2022/04/29 10:23:17;;;;;;;5.85;3.38;;;17.90;56.40;;;;;;5008579;28;20247;-56
2022/04/29 10:25:49;;;;;;;3.75;2.70;;;17.90;56.40;;;;;;5006731;28;20287;-57
2022/04/29 10:28:25;;;;;;;4.13;2.63;;;17.90;56.40;;;;;;5008202;28;20263;-55
2022/04/29 10:31:07;;;;;;;4.38;2.97;;;17.90;56.40;;;;;;5008681;28;20232;-53
2022/04/29 10:33:37;;;;;;;3.50;2.70;;;17.90;56.40;;;;;;5005993;28;20196;-55
2022/04/29 10:36:14;;;;;;;3.85;2.55;;;17.90;56.40;;;;;;5008037;28;20212;-54
2022/04/29 10:38:46;;;;;;;4.22;3.03;;;17.80;56.40;;;;;;5008150;28;20220;-55
2022/04/29 10:41:21;;;;;;;3.85;2.83;;;17.80;56.50;;;;;;5007999;28;20657;-56
2022/04/29 10:44:07;;;;;;;3.30;2.80;;;17.80;56.50;;;;;;5005159;28;20289;-54
2022/04/29 10:46:41;;;;;;;4.45;3.13;;;17.70;56.40;;;;;;5008089;28;20231;-55
2022/04/29 10:49:25;;;;;;;3.15;2.85;;;17.70;56.40;;;;;;5008328;28;20235;-56
2022/04/29 10:51:56;;;;;;;5.18;2.80;;;17.70;56.50;;;;;;5011967;28;20201;-55
2022/04/29 10:54:57;;;;;;;3.42;2.72;;;17.70;56.40;;;;;;5011921;28;20224;-54
2022/04/29 10:57:41;;;;;;;4.22;2.78;;;17.70;56.50;;;;;;5001023;28;20679;-57
2022/04/29 11:00:14;;;;;;;3.67;2.92;;;17.60;56.40;;;;;;5012579;28;20282;-54
2022/04/29 11:02:46;;;;;;;4.65;2.78;;;17.60;56.40;;;;;;5010988;28;20201;-55
2022/04/29 11:05:38;;;;;;;4.40;2.95;;;17.60;56.40;;;;;;5011500;28;20247;-55
2022/04/29 11:08:13;;;;;;;3.95;2.30;;;17.60;56.40;;;;;;5011338;28;20624;-56
2022/04/29 11:11:03;;;;;;;4.22;3.00;;;17.60;56.40;;;;;;5011726;28;20207;-57
2022/04/29 11:13:38;;;;;;;4.50;2.78;;;17.50;56.40;;;;;;5007258;28;20197;-54
2022/04/29 11:16:15;;;;;;;4.43;2.72;;;17.50;56.40;;;;;;5011520;28;20321;-53
2022/04/29 11:18:47;;;;;;;3.47;2.47;;;17.50;56.40;;;;;;5011453;28;20236;-54
2022/04/29 11:26:59;;;;;;;2.78;2.40;;;17.50;56.50;;;;;;5011942;28;20251;-54
2022/04/29 11:29:29;;;;;;;3.13;2.50;;;17.40;56.40;;;;;;5011471;28;20201;-55
2022/04/29 11:32:02;;;;;;;3.58;2.58;;;17.40;56.50;;;;;;5010790;28;20189;-56
2022/04/29 11:34:34;;;;;;;3.85;2.50;;;17.40;56.50;;;;;;5010715;28;20193;-54
2022/04/29 11:37:06;;;;;;;3.83;2.70;;;17.40;56.50;;;;;;5007853;28;20743;-55
2022/04/29 11:39:38;;;;;;;3.47;2.83;;;17.40;56.50;;;;;;5011814;28;20197;-57
2022/04/29 11:42:09;;;;;;;3.50;2.40;;;17.40;56.50;;;;;;5010651;28;20256;-54
2022/04/29 11:44:42;;;;;;;5.20;2.58;;;17.40;56.60;;;;;;5009015;28;20193;-53
2022/04/29 11:47:12;;;;;;;4.30;2.72;;;17.30;56.50;;;;;;5010517;28;20216;-51
2022/04/29 11:49:45;;;;;;;3.83;2.60;;;17.30;56.50;;;;;;5010739;28;20201;-54
2022/04/29 11:52:23;;;;;;;3.90;2.85;;;17.30;56.50;;;;;;5011211;28;20559;-56
2022/04/29 11:54:55;;;;;;;3.33;2.40;;;17.30;56.60;;;;;;5011136;28;20192;-56
2022/04/29 11:57:26;;;;;;;3.58;2.35;;;17.30;56.50;;;;;;5010479;28;20220;-55
2022/04/29 11:59:57;;;;;;;2.75;2.08;;;17.20;56.50;;;;;;5011858;28;20232;-55
2022/04/29 12:02:29;;;;;;;4.68;2.58;;;17.30;56.60;;;;;;5010450;28;20259;-53
2022/04/29 12:05:02;;;;;;;3.55;2.10;;;17.20;56.60;;;;;;5009630;28;20197;-54
2022/04/29 12:07:40;;;;;;;3.38;2.20;;;17.20;56.50;;;;;;5010117;28;20244;-54
2022/04/29 12:10:20;;;;;;;4.18;2.45;;;17.20;56.60;;;;;;5009738;28;20205;-53
2022/04/29 12:12:51;;;;;;;4.22;2.20;;;17.20;56.60;;;;;;5010666;28;20193;-55
2022/04/29 12:15:23;;;;;;;3.70;2.17;;;17.20;56.50;;;;;;5010356;28;20209;-55
2022/04/29 12:17:53;;;;;;;2.53;2.30;;;17.20;56.50;;;;;;5009183;28;20585;-54
2022/04/29 12:20:26;;;;;;;2.20;2.00;;;17.10;56.50;;;;;;5007375;28;20727;-55
2022/04/29 12:22:57;;;;;;;4.03;2.42;;;17.10;56.50;;;;;;5010467;28;20310;-51
2022/04/29 12:25:29;;;;;;;3.28;2.33;;;17.10;56.50;;;;;;5010115;28;20221;-53
2022/04/29 12:28:17;;;;;;;3.10;2.25;;;17.10;56.50;;;;;;5010037;28;20200;-56
2022/04/29 12:36:57;;;;;;;2.88;2.17;;;17.00;56.50;;;;;;5010016;28;20704;-55
2022/04/29 12:39:35;;;;;;;3.10;2.20;;;17.00;56.50;;;;;;5007316;28;20225;-57
2022/04/29 12:42:07;;;;;;;3.47;2.25;;;17.00;56.50;;;;;;5009701;28;20215;-57
2022/04/29 12:45:07;;;;;;;2.95;1.95;;;17.00;56.50;;;;;;5008865;28;21066;-52
2022/04/29 12:47:40;;;;;;;2.92;2.38;;;16.90;56.50;;;;;;5009134;28;20212;-55
2022/04/29 12:50:28;;;;;;;3.08;2.30;;;17.00;56.50;;;;;;5008826;28;20208;-57
2022/04/29 12:53:04;;;;;;;2.67;2.17;;;16.90;56.50;;;;;;5008418;28;20219;-55
2022/04/29 12:55:36;;;;;;;2.35;2.00;;;16.90;56.40;;;;;;4973626;28;20193;-55
2022/04/29 12:58:09;;;;;;;3.00;2.50;;;16.90;56.50;;;;;;4973560;28;20240;-56
2022/04/29 13:00:41;;;;;;;2.67;2.10;;;16.90;56.40;;;;;;4973090;28;20202;-53
2022/04/29 13:03:12;;;;;;;3.22;2.45;;;16.90;56.50;;;;;;4972475;28;20195;-55
2022/04/29 13:05:43;;;;;;;2.38;2.08;;;16.90;56.40;;;;;;4991491;28;20202;-56
2022/04/29 13:08:15;;;;;;;3.15;1.90;;;16.90;56.50;;;;;;4990859;28;20193;-56
2022/04/29 13:10:47;;;;;;;2.03;1.83;;;16.80;56.40;;;;;;4991036;28;20198;-56
2022/04/29 13:13:18;;;;;;;3.10;2.05;;;16.80;56.50;;;;;;4990873;28;20194;-56
2022/04/29 13:15:49;;;;;;;2.30;1.90;;;16.80;56.50;;;;;;4991497;28;20245;-55
2022/04/29 13:18:20;;;;;;;2.50;2.15;;;16.80;56.50;;;;;;4991172;28;20229;-55
2022/04/29 13:20:52;;;;;;;2.97;1.92;;;16.80;56.50;;;;;;4990970;28;20260;-56
2022/04/29 13:23:24;;;;;;;2.95;2.10;;;16.70;56.50;;;;;;4991218;28;20193;-56
2022/04/29 13:25:56;;;;;;;3.28;2.15;;;16.80;56.50;;;;;;4971787;28;20300;-57
2022/04/29 13:28:27;;;;;;;2.05;1.85;;;16.70;56.50;;;;;;4979747;28;20201;-51
2022/04/29 13:30:58;;;;;;;2.10;1.88;;;16.70;56.50;;;;;;4989895;28;20329;-57
2022/04/29 13:33:28;;;;;;;2.75;2.03;;;16.70;56.50;;;;;;4989904;28;20193;-57
2022/04/29 13:35:59;;;;;;;2.67;1.98;;;16.70;56.50;;;;;;4990636;28;20217;-56
2022/04/29 13:38:32;;;;;;;2.33;1.92;;;16.70;56.50;;;;;;4990674;28;20284;-55
2022/04/29 13:41:03;;;;;;;2.35;1.77;;;16.70;56.50;;;;;;4988102;28;20225;-56
2022/04/29 13:43:35;;;;;;;2.03;1.70;;;16.70;56.60;;;;;;4990055;28;20336;-56
2022/04/29 13:46:05;;;;;;;2.72;1.73;;;16.70;56.60;;;;;;4988329;28;20224;-55
2022/04/29 13:48:36;;;;;;;3.72;2.10;;;16.60;56.50;;;;;;4990649;28;20225;-55
2022/04/29 13:51:06;;;;;;;2.42;1.90;;;16.60;56.50;;;;;;4988154;28;20194;-55